sensor_id;sensor_type;location;lat;lon;timestamp;P1;durP1;ratioP1;P2;durP2;ratioP2
39698;SDS011;25372;50.582;12.250;2022-10-16T00:01:35;4.30;;;1.63;;
39698;SDS011;25372;50.582;12.250;2022-10-16T00:11:58;3.20;;;2.40;;
39698;SDS011;25372;50.582;12.250;2022-10-16T00:22:18;1.85;;;1.60;;
39698;SDS011;25372;50.582;12.250;2022-10-16T00:32:44;3.28;;;1.95;;
39698;SDS011;25372;50.582;12.250;2022-10-16T00:43:07;2.25;;;1.42;;
39698;SDS011;25372;50.582;12.250;2022-10-16T00:53:34;2.03;;;1.38;;
39698;SDS011;25372;50.582;12.250;2022-10-16T01:03:56;1.85;;;1.55;;
39698;SDS011;25372;50.582;12.250;2022-10-16T01:14:21;3.35;;;1.48;;
39698;SDS011;25372;50.582;12.250;2022-10-16T01:24:48;1.20;;;1.10;;
39698;SDS011;25372;50.582;12.250;2022-10-16T01:35:14;2.42;;;1.58;;
39698;SDS011;25372;50.582;12.250;2022-10-16T01:45:40;2.63;;;1.67;;
39698;SDS011;25372;50.582;12.250;2022-10-16T01:56:08;1.20;;;1.10;;
39698;SDS011;25372;50.582;12.250;2022-10-16T02:06:31;2.58;;;1.63;;
39698;SDS011;25372;50.582;12.250;2022-10-16T02:16:54;2.42;;;2.03;;
39698;SDS011;25372;50.582;12.250;2022-10-16T02:27:16;2.38;;;1.08;;
39698;SDS011;25372;50.582;12.250;2022-10-16T02:37:43;2.05;;;1.35;;
39698;SDS011;25372;50.582;12.250;2022-10-16T02:48:06;1.75;;;1.58;;
39698;SDS011;25372;50.582;12.250;2022-10-16T02:58:29;2.50;;;1.55;;
39698;SDS011;25372;50.582;12.250;2022-10-16T03:08:50;1.15;;;1.08;;
39698;SDS011;25372;50.582;12.250;2022-10-16T03:19:12;1.30;;;0.95;;
39698;SDS011;25372;50.582;12.250;2022-10-16T03:29:33;2.50;;;1.20;;
39698;SDS011;25372;50.582;12.250;2022-10-16T03:39:56;1.35;;;0.95;;
39698;SDS011;25372;50.582;12.250;2022-10-16T03:50:17;2.30;;;1.20;;
39698;SDS011;25372;50.582;12.250;2022-10-16T04:00:40;0.90;;;0.77;;
39698;SDS011;25372;50.582;12.250;2022-10-16T04:11:02;1.10;;;1.00;;
39698;SDS011;25372;50.582;12.250;2022-10-16T04:21:24;1.85;;;1.23;;
39698;SDS011;25372;50.582;12.250;2022-10-16T04:31:46;1.10;;;0.95;;
39698;SDS011;25372;50.582;12.250;2022-10-16T04:42:08;1.58;;;1.20;;
39698;SDS011;25372;50.582;12.250;2022-10-16T04:52:29;5.15;;;1.70;;
39698;SDS011;25372;50.582;12.250;2022-10-16T05:02:52;1.35;;;0.90;;
39698;SDS011;25372;50.582;12.250;2022-10-16T05:13:13;1.67;;;1.05;;
39698;SDS011;25372;50.582;12.250;2022-10-16T05:23:35;1.02;;;0.90;;
39698;SDS011;25372;50.582;12.250;2022-10-16T05:33:58;2.70;;;1.60;;
39698;SDS011;25372;50.582;12.250;2022-10-16T05:44:20;2.28;;;1.40;;
39698;SDS011;25372;50.582;12.250;2022-10-16T05:54:41;0.98;;;0.90;;
39698;SDS011;25372;50.582;12.250;2022-10-16T06:05:04;1.00;;;0.90;;
39698;SDS011;25372;50.582;12.250;2022-10-16T06:15:25;0.88;;;0.88;;
39698;SDS011;25372;50.582;12.250;2022-10-16T06:25:47;1.30;;;0.95;;
39698;SDS011;25372;50.582;12.250;2022-10-16T06:36:09;1.80;;;1.27;;
39698;SDS011;25372;50.582;12.250;2022-10-16T06:46:33;1.65;;;1.38;;
39698;SDS011;25372;50.582;12.250;2022-10-16T06:56:54;1.30;;;1.00;;
39698;SDS011;25372;50.582;12.250;2022-10-16T07:07:16;1.75;;;1.33;;
39698;SDS011;25372;50.582;12.250;2022-10-16T07:17:37;0.85;;;0.85;;
39698;SDS011;25372;50.582;12.250;2022-10-16T07:27:59;3.53;;;2.00;;
39698;SDS011;25372;50.582;12.250;2022-10-16T07:38:21;2.05;;;1.70;;
39698;SDS011;25372;50.582;12.250;2022-10-16T07:48:44;2.53;;;1.23;;
39698;SDS011;25372;50.582;12.250;2022-10-16T07:59:06;3.88;;;1.17;;
39698;SDS011;25372;50.582;12.250;2022-10-16T08:09:29;1.23;;;1.13;;
39698;SDS011;25372;50.582;12.250;2022-10-16T08:19:50;1.40;;;1.30;;
39698;SDS011;25372;50.582;12.250;2022-10-16T08:30:12;4.82;;;2.33;;
39698;SDS011;25372;50.582;12.250;2022-10-16T08:40:36;3.63;;;1.88;;
39698;SDS011;25372;50.582;12.250;2022-10-16T08:51:00;4.18;;;2.22;;
39698;SDS011;25372;50.582;12.250;2022-10-16T09:01:24;2.83;;;2.38;;
39698;SDS011;25372;50.582;12.250;2022-10-16T09:11:55;2.70;;;2.15;;
39698;SDS011;25372;50.582;12.250;2022-10-16T09:22:25;1.40;;;0.98;;
39698;SDS011;25372;50.582;12.250;2022-10-16T09:32:50;0.77;;;0.57;;
39698;SDS011;25372;50.582;12.250;2022-10-16T09:43:16;0.50;;;0.50;;
39698;SDS011;25372;50.582;12.250;2022-10-16T09:53:44;0.40;;;0.40;;
39698;SDS011;25372;50.582;12.250;2022-10-16T10:04:07;0.40;;;0.40;;
39698;SDS011;25372;50.582;12.250;2022-10-16T10:14:32;0.40;;;0.40;;
39698;SDS011;25372;50.582;12.250;2022-10-16T10:24:56;0.50;;;0.50;;
39698;SDS011;25372;50.582;12.250;2022-10-16T10:35:22;0.47;;;0.47;;
39698;SDS011;25372;50.582;12.250;2022-10-16T10:45:51;0.52;;;0.40;;
39698;SDS011;25372;50.582;12.250;2022-10-16T10:56:23;0.20;;;0.20;;
39698;SDS011;25372;50.582;12.250;2022-10-16T11:06:59;0.47;;;0.30;;
39698;SDS011;25372;50.582;12.250;2022-10-16T11:17:27;0.52;;;0.50;;
39698;SDS011;25372;50.582;12.250;2022-10-16T11:27:51;1.05;;;0.47;;
39698;SDS011;25372;50.582;12.250;2022-10-16T11:38:19;0.38;;;0.38;;
39698;SDS011;25372;50.582;12.250;2022-10-16T11:48:48;1.85;;;0.40;;
39698;SDS011;25372;50.582;12.250;2022-10-16T11:59:17;0.40;;;0.40;;
39698;SDS011;25372;50.582;12.250;2022-10-16T12:09:43;0.30;;;0.30;;
39698;SDS011;25372;50.582;12.250;2022-10-16T12:30:52;0.57;;;0.28;;
39698;SDS011;25372;50.582;12.250;2022-10-16T12:41:24;0.40;;;0.40;;
39698;SDS011;25372;50.582;12.250;2022-10-16T12:51:46;0.40;;;0.40;;
39698;SDS011;25372;50.582;12.250;2022-10-16T13:02:21;0.32;;;0.32;;
39698;SDS011;25372;50.582;12.250;2022-10-16T13:13:04;0.30;;;0.30;;
39698;SDS011;25372;50.582;12.250;2022-10-16T13:23:50;0.30;;;0.30;;
39698;SDS011;25372;50.582;12.250;2022-10-16T13:34:17;0.40;;;0.40;;
39698;SDS011;25372;50.582;12.250;2022-10-16T13:44:42;0.50;;;0.50;;
39698;SDS011;25372;50.582;12.250;2022-10-16T13:55:10;0.40;;;0.40;;
39698;SDS011;25372;50.582;12.250;2022-10-16T14:05:33;0.45;;;0.45;;
39698;SDS011;25372;50.582;12.250;2022-10-16T14:15:55;0.70;;;0.63;;
39698;SDS011;25372;50.582;12.250;2022-10-16T14:26:19;0.98;;;0.88;;
39698;SDS011;25372;50.582;12.250;2022-10-16T14:36:42;0.50;;;0.40;;
39698;SDS011;25372;50.582;12.250;2022-10-16T14:47:08;1.77;;;0.70;;
39698;SDS011;25372;50.582;12.250;2022-10-16T14:57:34;0.55;;;0.40;;
39698;SDS011;25372;50.582;12.250;2022-10-16T15:08:00;1.13;;;0.60;;
39698;SDS011;25372;50.582;12.250;2022-10-16T15:18:20;0.90;;;0.50;;
39698;SDS011;25372;50.582;12.250;2022-10-16T15:28:43;1.58;;;0.88;;
39698;SDS011;25372;50.582;12.250;2022-10-16T15:39:05;0.38;;;0.38;;
39698;SDS011;25372;50.582;12.250;2022-10-16T15:49:33;0.68;;;0.68;;
39698;SDS011;25372;50.582;12.250;2022-10-16T15:59:54;0.73;;;0.55;;
39698;SDS011;25372;50.582;12.250;2022-10-16T16:10:17;0.50;;;0.50;;
39698;SDS011;25372;50.582;12.250;2022-10-16T16:20:39;0.50;;;0.50;;
39698;SDS011;25372;50.582;12.250;2022-10-16T16:31:03;0.68;;;0.63;;
39698;SDS011;25372;50.582;12.250;2022-10-16T16:41:25;8.27;;;3.38;;
39698;SDS011;25372;50.582;12.250;2022-10-16T16:51:51;9.90;;;5.07;;
39698;SDS011;25372;50.582;12.250;2022-10-16T17:02:13;2.25;;;1.17;;
39698;SDS011;25372;50.582;12.250;2022-10-16T17:12:35;4.90;;;2.50;;
39698;SDS011;25372;50.582;12.250;2022-10-16T17:22:56;4.88;;;2.53;;
39698;SDS011;25372;50.582;12.250;2022-10-16T17:33:18;3.80;;;2.47;;
39698;SDS011;25372;50.582;12.250;2022-10-16T17:43:40;4.97;;;2.05;;
39698;SDS011;25372;50.582;12.250;2022-10-16T17:54:04;1.58;;;1.48;;
39698;SDS011;25372;50.582;12.250;2022-10-16T18:04:26;1.40;;;1.27;;
39698;SDS011;25372;50.582;12.250;2022-10-16T18:14:48;3.13;;;1.52;;
39698;SDS011;25372;50.582;12.250;2022-10-16T18:25:09;1.38;;;0.95;;
39698;SDS011;25372;50.582;12.250;2022-10-16T18:35:33;2.55;;;1.13;;
39698;SDS011;25372;50.582;12.250;2022-10-16T18:45:55;2.50;;;1.53;;
39698;SDS011;25372;50.582;12.250;2022-10-16T18:56:18;1.27;;;1.17;;
39698;SDS011;25372;50.582;12.250;2022-10-16T19:06:42;1.08;;;1.02;;
39698;SDS011;25372;50.582;12.250;2022-10-16T19:17:06;2.30;;;1.15;;
39698;SDS011;25372;50.582;12.250;2022-10-16T19:27:27;1.95;;;1.75;;
39698;SDS011;25372;50.582;12.250;2022-10-16T19:37:49;2.67;;;1.60;;
39698;SDS011;25372;50.582;12.250;2022-10-16T19:48:11;1.92;;;1.60;;
39698;SDS011;25372;50.582;12.250;2022-10-16T19:58:33;1.58;;;0.98;;
39698;SDS011;25372;50.582;12.250;2022-10-16T20:08:53;1.75;;;1.38;;
39698;SDS011;25372;50.582;12.250;2022-10-16T20:19:17;1.30;;;1.20;;
39698;SDS011;25372;50.582;12.250;2022-10-16T20:29:38;2.13;;;1.77;;
39698;SDS011;25372;50.582;12.250;2022-10-16T20:40:00;1.95;;;1.42;;
39698;SDS011;25372;50.582;12.250;2022-10-16T20:50:21;1.55;;;1.08;;
39698;SDS011;25372;50.582;12.250;2022-10-16T21:00:44;2.13;;;1.77;;
39698;SDS011;25372;50.582;12.250;2022-10-16T21:11:08;2.63;;;2.28;;
39698;SDS011;25372;50.582;12.250;2022-10-16T21:21:33;1.33;;;1.23;;
39698;SDS011;25372;50.582;12.250;2022-10-16T21:31:54;2.55;;;2.00;;
39698;SDS011;25372;50.582;12.250;2022-10-16T21:42:16;2.75;;;1.88;;
39698;SDS011;25372;50.582;12.250;2022-10-16T21:52:37;6.57;;;2.50;;
39698;SDS011;25372;50.582;12.250;2022-10-16T22:02:59;4.00;;;2.25;;
39698;SDS011;25372;50.582;12.250;2022-10-16T22:13:20;2.10;;;1.50;;
39698;SDS011;25372;50.582;12.250;2022-10-16T22:23:42;3.28;;;2.22;;
39698;SDS011;25372;50.582;12.250;2022-10-16T22:34:03;3.10;;;2.35;;
39698;SDS011;25372;50.582;12.250;2022-10-16T22:44:26;1.98;;;1.77;;
39698;SDS011;25372;50.582;12.250;2022-10-16T22:54:47;1.83;;;1.30;;
39698;SDS011;25372;50.582;12.250;2022-10-16T23:05:10;2.35;;;1.60;;
39698;SDS011;25372;50.582;12.250;2022-10-16T23:15:31;1.88;;;1.48;;
39698;SDS011;25372;50.582;12.250;2022-10-16T23:25:53;2.75;;;1.67;;
39698;SDS011;25372;50.582;12.250;2022-10-16T23:36:15;2.05;;;1.52;;
39698;SDS011;25372;50.582;12.250;2022-10-16T23:46:38;1.13;;;1.13;;
39698;SDS011;25372;50.582;12.250;2022-10-16T23:56:59;1.05;;;0.80;;
